sensor_id;sensor_type;location;lat;lon;timestamp;temperature;humidity
80426;DHT22;69766;51.476;5.704;2023-08-12T00:02:06;20.40;99.90
80426;DHT22;69766;51.476;5.704;2023-08-12T00:04:32;20.40;99.90
80426;DHT22;69766;51.476;5.704;2023-08-12T00:06:58;20.30;99.90
80426;DHT22;69766;51.476;5.704;2023-08-12T00:09:23;20.30;99.90
80426;DHT22;69766;51.476;5.704;2023-08-12T00:11:50;20.30;99.90
80426;DHT22;69766;51.476;5.704;2023-08-12T00:14:15;20.30;99.90
80426;DHT22;69766;51.476;5.704;2023-08-12T00:16:41;20.30;99.90
80426;DHT22;69766;51.476;5.704;2023-08-12T00:19:07;20.30;99.90
80426;DHT22;69766;51.476;5.704;2023-08-12T00:21:33;20.30;99.90
80426;DHT22;69766;51.476;5.704;2023-08-12T00:23:59;20.30;99.90
80426;DHT22;69766;51.476;5.704;2023-08-12T00:26:25;20.30;99.90
80426;DHT22;69766;51.476;5.704;2023-08-12T00:28:51;20.30;99.90
80426;DHT22;69766;51.476;5.704;2023-08-12T00:31:16;20.30;99.90
80426;DHT22;69766;51.476;5.704;2023-08-12T00:33:42;20.30;99.90
80426;DHT22;69766;51.476;5.704;2023-08-12T00:36:08;20.30;99.90
80426;DHT22;69766;51.476;5.704;2023-08-12T00:38:33;20.30;99.90
80426;DHT22;69766;51.476;5.704;2023-08-12T00:40:59;20.20;99.90
80426;DHT22;69766;51.476;5.704;2023-08-12T00:43:25;20.20;99.90
80426;DHT22;69766;51.476;5.704;2023-08-12T00:45:50;20.20;99.90
80426;DHT22;69766;51.476;5.704;2023-08-12T00:48:17;20.20;99.90
80426;DHT22;69766;51.476;5.704;2023-08-12T00:50:43;20.20;99.90
80426;DHT22;69766;51.476;5.704;2023-08-12T00:53:09;20.20;99.90
80426;DHT22;69766;51.476;5.704;2023-08-12T00:55:35;20.30;99.90
80426;DHT22;69766;51.476;5.704;2023-08-12T00:58:02;20.20;99.90
80426;DHT22;69766;51.476;5.704;2023-08-12T01:00:28;20.30;99.90
80426;DHT22;69766;51.476;5.704;2023-08-12T01:02:56;20.20;99.90
80426;DHT22;69766;51.476;5.704;2023-08-12T01:05:22;20.30;99.90
80426;DHT22;69766;51.476;5.704;2023-08-12T01:07:47;20.20;99.90
80426;DHT22;69766;51.476;5.704;2023-08-12T01:10:14;20.20;99.90
80426;DHT22;69766;51.476;5.704;2023-08-12T01:15:53;20.10;99.90
80426;DHT22;69766;51.476;5.704;2023-08-12T01:18:21;20.10;99.90
80426;DHT22;69766;51.476;5.704;2023-08-12T01:20:48;20.10;99.90
80426;DHT22;69766;51.476;5.704;2023-08-12T01:23:14;20.10;99.90
80426;DHT22;69766;51.476;5.704;2023-08-12T01:25:43;20.00;99.90
80426;DHT22;69766;51.476;5.704;2023-08-12T01:28:08;20.00;99.90
80426;DHT22;69766;51.476;5.704;2023-08-12T01:30:39;20.00;99.90
80426;DHT22;69766;51.476;5.704;2023-08-12T01:33:39;20.00;99.90
80426;DHT22;69766;51.476;5.704;2023-08-12T01:36:19;20.00;99.90
80426;DHT22;69766;51.476;5.704;2023-08-12T01:38:46;20.00;99.90
80426;DHT22;69766;51.476;5.704;2023-08-12T01:41:15;19.90;99.90
80426;DHT22;69766;51.476;5.704;2023-08-12T01:43:42;19.90;99.90
80426;DHT22;69766;51.476;5.704;2023-08-12T01:46:07;20.00;99.90
80426;DHT22;69766;51.476;5.704;2023-08-12T01:48:33;19.90;99.90
80426;DHT22;69766;51.476;5.704;2023-08-12T01:50:59;19.90;99.90
80426;DHT22;69766;51.476;5.704;2023-08-12T01:53:25;20.00;99.90
80426;DHT22;69766;51.476;5.704;2023-08-12T01:55:52;20.00;99.90
80426;DHT22;69766;51.476;5.704;2023-08-12T01:58:18;20.00;99.90
80426;DHT22;69766;51.476;5.704;2023-08-12T02:00:43;19.90;99.90
80426;DHT22;69766;51.476;5.704;2023-08-12T02:03:09;19.90;99.90
80426;DHT22;69766;51.476;5.704;2023-08-12T02:05:35;19.90;99.90
80426;DHT22;69766;51.476;5.704;2023-08-12T02:08:05;19.90;99.90
80426;DHT22;69766;51.476;5.704;2023-08-12T02:10:31;20.00;99.90
80426;DHT22;69766;51.476;5.704;2023-08-12T02:12:57;19.90;99.90
80426;DHT22;69766;51.476;5.704;2023-08-12T02:15:22;19.90;99.90
80426;DHT22;69766;51.476;5.704;2023-08-12T02:17:48;20.00;99.90
80426;DHT22;69766;51.476;5.704;2023-08-12T02:20:14;20.00;99.90
80426;DHT22;69766;51.476;5.704;2023-08-12T02:22:39;20.00;99.90
80426;DHT22;69766;51.476;5.704;2023-08-12T02:25:05;20.00;99.90
80426;DHT22;69766;51.476;5.704;2023-08-12T02:27:31;20.00;99.90
80426;DHT22;69766;51.476;5.704;2023-08-12T02:29:56;20.00;99.90
80426;DHT22;69766;51.476;5.704;2023-08-12T02:32:22;20.00;99.90
80426;DHT22;69766;51.476;5.704;2023-08-12T02:34:47;20.00;99.90
80426;DHT22;69766;51.476;5.704;2023-08-12T02:37:13;20.00;99.90
80426;DHT22;69766;51.476;5.704;2023-08-12T02:39:39;19.90;99.90
80426;DHT22;69766;51.476;5.704;2023-08-12T02:42:05;19.90;99.90
80426;DHT22;69766;51.476;5.704;2023-08-12T02:44:30;19.90;99.90
80426;DHT22;69766;51.476;5.704;2023-08-12T02:46:56;19.90;99.90
80426;DHT22;69766;51.476;5.704;2023-08-12T02:49:22;19.90;99.90
80426;DHT22;69766;51.476;5.704;2023-08-12T02:51:50;19.90;99.90
80426;DHT22;69766;51.476;5.704;2023-08-12T02:54:15;19.90;99.90
80426;DHT22;69766;51.476;5.704;2023-08-12T02:56:41;19.80;99.90
80426;DHT22;69766;51.476;5.704;2023-08-12T02:59:07;19.80;99.90
80426;DHT22;69766;51.476;5.704;2023-08-12T03:01:32;19.80;99.90
80426;DHT22;69766;51.476;5.704;2023-08-12T03:04:00;19.70;99.90
80426;DHT22;69766;51.476;5.704;2023-08-12T03:06:26;19.70;99.90
80426;DHT22;69766;51.476;5.704;2023-08-12T03:08:52;19.70;99.90
80426;DHT22;69766;51.476;5.704;2023-08-12T03:11:17;19.70;99.90
80426;DHT22;69766;51.476;5.704;2023-08-12T03:13:44;19.60;99.90
80426;DHT22;69766;51.476;5.704;2023-08-12T03:16:14;19.70;99.90
80426;DHT22;69766;51.476;5.704;2023-08-12T03:18:40;19.70;99.90
80426;DHT22;69766;51.476;5.704;2023-08-12T03:21:09;19.70;99.90
80426;DHT22;69766;51.476;5.704;2023-08-12T03:23:36;19.60;99.90
80426;DHT22;69766;51.476;5.704;2023-08-12T03:26:02;19.70;99.90
80426;DHT22;69766;51.476;5.704;2023-08-12T03:28:28;19.60;99.90
80426;DHT22;69766;51.476;5.704;2023-08-12T03:30:54;19.70;99.90
80426;DHT22;69766;51.476;5.704;2023-08-12T03:33:20;19.60;99.90
80426;DHT22;69766;51.476;5.704;2023-08-12T03:35:46;19.70;99.90
80426;DHT22;69766;51.476;5.704;2023-08-12T03:38:13;19.70;99.90
80426;DHT22;69766;51.476;5.704;2023-08-12T03:40:39;19.70;99.90
80426;DHT22;69766;51.476;5.704;2023-08-12T03:43:04;19.70;99.90
80426;DHT22;69766;51.476;5.704;2023-08-12T03:45:48;19.70;99.90
80426;DHT22;69766;51.476;5.704;2023-08-12T03:48:14;19.60;99.90
80426;DHT22;69766;51.476;5.704;2023-08-12T03:50:40;19.70;99.90
80426;DHT22;69766;51.476;5.704;2023-08-12T03:53:06;19.70;99.90
80426;DHT22;69766;51.476;5.704;2023-08-12T03:55:34;19.70;99.90
80426;DHT22;69766;51.476;5.704;2023-08-12T03:58:00;19.70;99.90
80426;DHT22;69766;51.476;5.704;2023-08-12T04:00:26;19.60;99.90
80426;DHT22;69766;51.476;5.704;2023-08-12T04:02:52;19.60;99.90
80426;DHT22;69766;51.476;5.704;2023-08-12T04:05:18;19.60;99.90
80426;DHT22;69766;51.476;5.704;2023-08-12T04:07:44;19.60;99.90
80426;DHT22;69766;51.476;5.704;2023-08-12T04:10:10;19.60;99.90
80426;DHT22;69766;51.476;5.704;2023-08-12T04:12:36;19.60;99.90
80426;DHT22;69766;51.476;5.704;2023-08-12T04:15:02;19.60;99.90
80426;DHT22;69766;51.476;5.704;2023-08-12T04:17:30;19.60;99.90
80426;DHT22;69766;51.476;5.704;2023-08-12T04:19:55;19.60;99.90
80426;DHT22;69766;51.476;5.704;2023-08-12T04:22:21;19.60;99.90
80426;DHT22;69766;51.476;5.704;2023-08-12T04:24:47;19.60;99.90
80426;DHT22;69766;51.476;5.704;2023-08-12T04:27:12;19.60;99.90
80426;DHT22;69766;51.476;5.704;2023-08-12T04:29:38;19.60;99.90
80426;DHT22;69766;51.476;5.704;2023-08-12T04:32:04;19.70;99.90
80426;DHT22;69766;51.476;5.704;2023-08-12T04:34:30;19.60;99.90
80426;DHT22;69766;51.476;5.704;2023-08-12T04:36:55;19.70;99.90
80426;DHT22;69766;51.476;5.704;2023-08-12T04:39:21;19.70;99.90
80426;DHT22;69766;51.476;5.704;2023-08-12T04:41:48;19.70;99.90
80426;DHT22;69766;51.476;5.704;2023-08-12T04:44:13;19.70;99.90
80426;DHT22;69766;51.476;5.704;2023-08-12T04:46:39;19.70;99.90
80426;DHT22;69766;51.476;5.704;2023-08-12T04:49:08;19.70;99.90
80426;DHT22;69766;51.476;5.704;2023-08-12T04:51:34;19.60;99.90
80426;DHT22;69766;51.476;5.704;2023-08-12T04:53:59;19.60;99.90
80426;DHT22;69766;51.476;5.704;2023-08-12T04:56:29;19.60;99.90
80426;DHT22;69766;51.476;5.704;2023-08-12T04:58:57;19.60;99.90
80426;DHT22;69766;51.476;5.704;2023-08-12T05:01:23;19.60;99.90
80426;DHT22;69766;51.476;5.704;2023-08-12T05:03:49;19.60;99.90
80426;DHT22;69766;51.476;5.704;2023-08-12T05:06:17;19.50;99.90
80426;DHT22;69766;51.476;5.704;2023-08-12T05:08:43;19.50;99.90
80426;DHT22;69766;51.476;5.704;2023-08-12T05:11:08;19.50;99.90
80426;DHT22;69766;51.476;5.704;2023-08-12T05:13:34;19.50;99.90
80426;DHT22;69766;51.476;5.704;2023-08-12T05:16:00;19.40;99.90
80426;DHT22;69766;51.476;5.704;2023-08-12T05:18:28;19.40;99.90
80426;DHT22;69766;51.476;5.704;2023-08-12T05:20:55;19.40;99.90
80426;DHT22;69766;51.476;5.704;2023-08-12T05:23:21;19.30;99.90
80426;DHT22;69766;51.476;5.704;2023-08-12T05:25:46;19.30;99.90
80426;DHT22;69766;51.476;5.704;2023-08-12T05:28:12;19.30;99.90
80426;DHT22;69766;51.476;5.704;2023-08-12T05:30:38;19.20;99.90
80426;DHT22;69766;51.476;5.704;2023-08-12T05:33:04;19.20;99.90
80426;DHT22;69766;51.476;5.704;2023-08-12T05:35:36;19.10;99.90
80426;DHT22;69766;51.476;5.704;2023-08-12T05:38:02;19.10;99.90
80426;DHT22;69766;51.476;5.704;2023-08-12T05:40:28;19.00;99.90
80426;DHT22;69766;51.476;5.704;2023-08-12T05:42:54;19.00;99.90
80426;DHT22;69766;51.476;5.704;2023-08-12T05:45:20;19.00;99.90
80426;DHT22;69766;51.476;5.704;2023-08-12T05:47:45;19.10;99.90
80426;DHT22;69766;51.476;5.704;2023-08-12T05:50:11;19.00;99.90
80426;DHT22;69766;51.476;5.704;2023-08-12T05:52:39;19.10;99.90
80426;DHT22;69766;51.476;5.704;2023-08-12T05:55:05;19.10;99.90
80426;DHT22;69766;51.476;5.704;2023-08-12T05:57:37;19.10;99.90
80426;DHT22;69766;51.476;5.704;2023-08-12T06:00:09;19.10;99.90
80426;DHT22;69766;51.476;5.704;2023-08-12T06:02:35;19.10;99.90
80426;DHT22;69766;51.476;5.704;2023-08-12T06:05:04;19.00;99.90
80426;DHT22;69766;51.476;5.704;2023-08-12T06:07:30;19.00;99.90
80426;DHT22;69766;51.476;5.704;2023-08-12T06:09:56;19.10;99.90
80426;DHT22;69766;51.476;5.704;2023-08-12T06:12:30;19.10;99.90
80426;DHT22;69766;51.476;5.704;2023-08-12T06:14:56;19.10;99.90
80426;DHT22;69766;51.476;5.704;2023-08-12T06:17:22;19.10;99.90
80426;DHT22;69766;51.476;5.704;2023-08-12T06:19:47;19.10;99.90
80426;DHT22;69766;51.476;5.704;2023-08-12T06:22:13;19.10;99.90
80426;DHT22;69766;51.476;5.704;2023-08-12T06:24:38;19.10;99.90
80426;DHT22;69766;51.476;5.704;2023-08-12T06:27:07;19.10;99.90
80426;DHT22;69766;51.476;5.704;2023-08-12T06:29:32;19.10;99.90
80426;DHT22;69766;51.476;5.704;2023-08-12T06:31:58;19.20;99.90
80426;DHT22;69766;51.476;5.704;2023-08-12T06:34:23;19.20;99.90
80426;DHT22;69766;51.476;5.704;2023-08-12T06:36:52;19.20;99.90
80426;DHT22;69766;51.476;5.704;2023-08-12T06:39:20;19.20;99.90
80426;DHT22;69766;51.476;5.704;2023-08-12T06:42:12;19.20;99.90
80426;DHT22;69766;51.476;5.704;2023-08-12T06:44:38;19.30;99.90
80426;DHT22;69766;51.476;5.704;2023-08-12T06:47:04;19.30;99.90
80426;DHT22;69766;51.476;5.704;2023-08-12T06:49:32;19.40;99.90
80426;DHT22;69766;51.476;5.704;2023-08-12T06:51:58;19.50;99.90
80426;DHT22;69766;51.476;5.704;2023-08-12T06:54:24;19.50;99.90
80426;DHT22;69766;51.476;5.704;2023-08-12T06:56:52;19.60;99.90
80426;DHT22;69766;51.476;5.704;2023-08-12T06:59:18;19.70;99.90
80426;DHT22;69766;51.476;5.704;2023-08-12T07:01:44;19.80;99.90
80426;DHT22;69766;51.476;5.704;2023-08-12T07:04:12;19.90;99.90
80426;DHT22;69766;51.476;5.704;2023-08-12T07:06:38;19.90;99.90
80426;DHT22;69766;51.476;5.704;2023-08-12T07:09:06;19.90;99.90
80426;DHT22;69766;51.476;5.704;2023-08-12T07:11:40;19.90;99.90
80426;DHT22;69766;51.476;5.704;2023-08-12T07:14:22;19.90;99.90
80426;DHT22;69766;51.476;5.704;2023-08-12T07:16:47;19.90;99.90
80426;DHT22;69766;51.476;5.704;2023-08-12T07:19:22;20.00;99.90
80426;DHT22;69766;51.476;5.704;2023-08-12T07:21:47;19.90;99.90
80426;DHT22;69766;51.476;5.704;2023-08-12T07:24:13;19.90;99.90
80426;DHT22;69766;51.476;5.704;2023-08-12T07:26:48;19.90;99.90
80426;DHT22;69766;51.476;5.704;2023-08-12T07:29:19;19.90;99.90
80426;DHT22;69766;51.476;5.704;2023-08-12T07:31:45;19.90;99.90
80426;DHT22;69766;51.476;5.704;2023-08-12T07:34:15;20.00;99.90
80426;DHT22;69766;51.476;5.704;2023-08-12T07:36:41;20.10;99.90
80426;DHT22;69766;51.476;5.704;2023-08-12T07:39:10;20.10;99.90
80426;DHT22;69766;51.476;5.704;2023-08-12T07:41:35;20.20;99.90
80426;DHT22;69766;51.476;5.704;2023-08-12T07:44:01;20.10;99.90
80426;DHT22;69766;51.476;5.704;2023-08-12T07:46:28;20.20;99.90
80426;DHT22;69766;51.476;5.704;2023-08-12T07:48:54;20.20;99.90
80426;DHT22;69766;51.476;5.704;2023-08-12T07:51:20;20.20;99.90
80426;DHT22;69766;51.476;5.704;2023-08-12T07:53:45;20.10;99.90
80426;DHT22;69766;51.476;5.704;2023-08-12T07:56:11;20.10;99.90
80426;DHT22;69766;51.476;5.704;2023-08-12T07:58:37;20.10;99.90
80426;DHT22;69766;51.476;5.704;2023-08-12T08:01:02;20.20;99.90
80426;DHT22;69766;51.476;5.704;2023-08-12T08:03:28;20.20;99.90
80426;DHT22;69766;51.476;5.704;2023-08-12T08:05:55;20.20;99.90
80426;DHT22;69766;51.476;5.704;2023-08-12T08:08:20;20.30;99.90
80426;DHT22;69766;51.476;5.704;2023-08-12T08:10:46;20.30;99.90
80426;DHT22;69766;51.476;5.704;2023-08-12T08:13:12;20.30;99.90
80426;DHT22;69766;51.476;5.704;2023-08-12T08:15:37;20.40;99.90
80426;DHT22;69766;51.476;5.704;2023-08-12T08:18:03;20.40;99.90
80426;DHT22;69766;51.476;5.704;2023-08-12T08:20:30;20.50;99.90
80426;DHT22;69766;51.476;5.704;2023-08-12T08:22:55;20.60;99.90
80426;DHT22;69766;51.476;5.704;2023-08-12T08:25:22;20.60;99.90
80426;DHT22;69766;51.476;5.704;2023-08-12T08:27:49;20.60;99.90
80426;DHT22;69766;51.476;5.704;2023-08-12T08:30:14;20.80;99.90
80426;DHT22;69766;51.476;5.704;2023-08-12T08:32:45;20.80;99.90
80426;DHT22;69766;51.476;5.704;2023-08-12T08:35:12;20.80;99.90
80426;DHT22;69766;51.476;5.704;2023-08-12T08:37:37;20.80;99.90
80426;DHT22;69766;51.476;5.704;2023-08-12T08:40:04;20.70;99.90
80426;DHT22;69766;51.476;5.704;2023-08-12T08:42:30;20.60;99.90
80426;DHT22;69766;51.476;5.704;2023-08-12T08:45:00;20.60;99.90
80426;DHT22;69766;51.476;5.704;2023-08-12T08:47:27;20.60;99.90
80426;DHT22;69766;51.476;5.704;2023-08-12T08:49:56;20.50;99.90
80426;DHT22;69766;51.476;5.704;2023-08-12T08:52:26;20.40;99.90
80426;DHT22;69766;51.476;5.704;2023-08-12T08:54:52;20.40;99.90
80426;DHT22;69766;51.476;5.704;2023-08-12T08:57:20;20.30;99.90
80426;DHT22;69766;51.476;5.704;2023-08-12T08:59:46;20.30;99.90
80426;DHT22;69766;51.476;5.704;2023-08-12T09:02:17;20.50;99.90
80426;DHT22;69766;51.476;5.704;2023-08-12T09:04:49;20.70;99.90
80426;DHT22;69766;51.476;5.704;2023-08-12T09:07:16;20.90;99.90
80426;DHT22;69766;51.476;5.704;2023-08-12T09:09:45;21.60;99.90
80426;DHT22;69766;51.476;5.704;2023-08-12T09:12:17;22.00;99.90
80426;DHT22;69766;51.476;5.704;2023-08-12T09:15:03;22.10;99.90
80426;DHT22;69766;51.476;5.704;2023-08-12T09:17:38;22.30;99.90
80426;DHT22;69766;51.476;5.704;2023-08-12T09:20:06;22.50;99.90
80426;DHT22;69766;51.476;5.704;2023-08-12T09:22:37;22.40;99.90
80426;DHT22;69766;51.476;5.704;2023-08-12T09:25:03;22.30;99.90
80426;DHT22;69766;51.476;5.704;2023-08-12T09:27:50;22.20;99.90
80426;DHT22;69766;51.476;5.704;2023-08-12T09:30:20;22.30;99.90
80426;DHT22;69766;51.476;5.704;2023-08-12T09:32:58;22.40;99.90
80426;DHT22;69766;51.476;5.704;2023-08-12T09:35:35;22.50;99.90
80426;DHT22;69766;51.476;5.704;2023-08-12T09:38:10;22.20;99.90
80426;DHT22;69766;51.476;5.704;2023-08-12T09:40:37;22.10;99.90
80426;DHT22;69766;51.476;5.704;2023-08-12T09:43:03;21.80;99.90
80426;DHT22;69766;51.476;5.704;2023-08-12T09:45:31;21.70;99.90
80426;DHT22;69766;51.476;5.704;2023-08-12T09:48:02;21.70;99.90
80426;DHT22;69766;51.476;5.704;2023-08-12T09:50:39;21.80;99.90
80426;DHT22;69766;51.476;5.704;2023-08-12T09:53:27;22.00;99.90
80426;DHT22;69766;51.476;5.704;2023-08-12T09:55:54;22.20;99.90
80426;DHT22;69766;51.476;5.704;2023-08-12T09:58:21;22.70;99.90
80426;DHT22;69766;51.476;5.704;2023-08-12T10:00:49;23.30;99.90
80426;DHT22;69766;51.476;5.704;2023-08-12T10:03:17;23.60;99.90
80426;DHT22;69766;51.476;5.704;2023-08-12T10:05:49;23.80;99.90
80426;DHT22;69766;51.476;5.704;2023-08-12T10:08:16;23.90;99.90
80426;DHT22;69766;51.476;5.704;2023-08-12T10:10:47;23.50;99.90
80426;DHT22;69766;51.476;5.704;2023-08-12T10:13:20;23.20;99.90
80426;DHT22;69766;51.476;5.704;2023-08-12T10:15:49;22.70;99.90
80426;DHT22;69766;51.476;5.704;2023-08-12T10:18:16;22.30;99.90
80426;DHT22;69766;51.476;5.704;2023-08-12T10:20:49;22.30;99.90
80426;DHT22;69766;51.476;5.704;2023-08-12T10:23:24;22.30;99.90
80426;DHT22;69766;51.476;5.704;2023-08-12T10:25:54;22.20;99.90
80426;DHT22;69766;51.476;5.704;2023-08-12T10:28:39;21.90;99.90
80426;DHT22;69766;51.476;5.704;2023-08-12T10:31:16;21.60;99.90
80426;DHT22;69766;51.476;5.704;2023-08-12T10:33:46;21.70;99.90
80426;DHT22;69766;51.476;5.704;2023-08-12T10:36:17;21.60;99.90
80426;DHT22;69766;51.476;5.704;2023-08-12T10:38:45;22.00;99.90
80426;DHT22;69766;51.476;5.704;2023-08-12T10:41:20;22.20;99.90
80426;DHT22;69766;51.476;5.704;2023-08-12T10:44:00;22.20;99.90
80426;DHT22;69766;51.476;5.704;2023-08-12T10:46:36;21.90;99.90
80426;DHT22;69766;51.476;5.704;2023-08-12T10:49:04;21.80;99.90
80426;DHT22;69766;51.476;5.704;2023-08-12T10:51:47;22.00;99.90
80426;DHT22;69766;51.476;5.704;2023-08-12T11:02:31;23.20;99.90
80426;DHT22;69766;51.476;5.704;2023-08-12T11:07:32;23.20;99.90
80426;DHT22;69766;51.476;5.704;2023-08-12T11:10:03;23.40;99.90
80426;DHT22;69766;51.476;5.704;2023-08-12T11:12:34;23.20;99.90
80426;DHT22;69766;51.476;5.704;2023-08-12T11:15:01;22.50;99.90
80426;DHT22;69766;51.476;5.704;2023-08-12T11:17:48;22.30;99.90
80426;DHT22;69766;51.476;5.704;2023-08-12T11:20:14;22.20;99.90
80426;DHT22;69766;51.476;5.704;2023-08-12T11:22:43;22.50;99.90
80426;DHT22;69766;51.476;5.704;2023-08-12T11:25:14;22.90;99.90
80426;DHT22;69766;51.476;5.704;2023-08-12T11:27:47;23.50;99.90
80426;DHT22;69766;51.476;5.704;2023-08-12T11:30:19;23.60;99.90
80426;DHT22;69766;51.476;5.704;2023-08-12T11:32:56;24.20;99.90
80426;DHT22;69766;51.476;5.704;2023-08-12T11:35:25;24.30;99.90
80426;DHT22;69766;51.476;5.704;2023-08-12T11:37:56;23.70;99.90
80426;DHT22;69766;51.476;5.704;2023-08-12T11:40:30;23.40;99.90
80426;DHT22;69766;51.476;5.704;2023-08-12T11:43:03;23.30;99.90
80426;DHT22;69766;51.476;5.704;2023-08-12T11:45:34;23.30;99.90
80426;DHT22;69766;51.476;5.704;2023-08-12T11:48:00;23.40;99.90
80426;DHT22;69766;51.476;5.704;2023-08-12T11:50:29;23.70;99.90
80426;DHT22;69766;51.476;5.704;2023-08-12T11:53:00;23.70;99.90
80426;DHT22;69766;51.476;5.704;2023-08-12T11:55:26;23.60;99.90
80426;DHT22;69766;51.476;5.704;2023-08-12T11:57:52;23.80;99.90
80426;DHT22;69766;51.476;5.704;2023-08-12T12:00:17;24.20;99.90
80426;DHT22;69766;51.476;5.704;2023-08-12T12:05:16;24.20;99.90
80426;DHT22;69766;51.476;5.704;2023-08-12T12:07:42;24.30;99.90
80426;DHT22;69766;51.476;5.704;2023-08-12T12:10:17;23.90;99.90
80426;DHT22;69766;51.476;5.704;2023-08-12T12:12:44;23.70;99.90
80426;DHT22;69766;51.476;5.704;2023-08-12T12:15:10;24.20;99.90
80426;DHT22;69766;51.476;5.704;2023-08-12T12:17:44;24.40;99.90
80426;DHT22;69766;51.476;5.704;2023-08-12T12:20:10;24.30;99.90
80426;DHT22;69766;51.476;5.704;2023-08-12T12:22:37;24.20;99.90
80426;DHT22;69766;51.476;5.704;2023-08-12T12:25:13;24.00;99.90
80426;DHT22;69766;51.476;5.704;2023-08-12T12:27:45;24.00;99.90
80426;DHT22;69766;51.476;5.704;2023-08-12T12:30:21;24.10;99.90
80426;DHT22;69766;51.476;5.704;2023-08-12T12:32:47;24.60;99.90
80426;DHT22;69766;51.476;5.704;2023-08-12T12:35:16;24.60;99.90
80426;DHT22;69766;51.476;5.704;2023-08-12T12:37:42;25.30;99.90
80426;DHT22;69766;51.476;5.704;2023-08-12T12:40:08;26.00;99.90
80426;DHT22;69766;51.476;5.704;2023-08-12T12:42:35;26.80;99.90
80426;DHT22;69766;51.476;5.704;2023-08-12T12:45:01;26.60;99.90
80426;DHT22;69766;51.476;5.704;2023-08-12T12:47:26;26.40;99.90
80426;DHT22;69766;51.476;5.704;2023-08-12T12:49:52;26.50;99.90
80426;DHT22;69766;51.476;5.704;2023-08-12T12:52:18;26.90;99.90
80426;DHT22;69766;51.476;5.704;2023-08-12T12:54:43;27.80;99.00
80426;DHT22;69766;51.476;5.704;2023-08-12T12:57:09;28.10;98.10
80426;DHT22;69766;51.476;5.704;2023-08-12T12:59:37;28.80;96.30
80426;DHT22;69766;51.476;5.704;2023-08-12T13:02:07;28.30;94.80
80426;DHT22;69766;51.476;5.704;2023-08-12T13:04:33;27.70;95.30
80426;DHT22;69766;51.476;5.704;2023-08-12T13:06:59;28.00;94.40
80426;DHT22;69766;51.476;5.704;2023-08-12T13:09:24;27.30;94.40
80426;DHT22;69766;51.476;5.704;2023-08-12T13:11:50;27.40;97.30
80426;DHT22;69766;51.476;5.704;2023-08-12T13:14:22;28.20;95.00
80426;DHT22;69766;51.476;5.704;2023-08-12T13:16:48;27.80;94.40
80426;DHT22;69766;51.476;5.704;2023-08-12T13:19:18;28.80;94.20
80426;DHT22;69766;51.476;5.704;2023-08-12T13:21:44;28.90;92.20
80426;DHT22;69766;51.476;5.704;2023-08-12T13:24:09;28.90;93.20
80426;DHT22;69766;51.476;5.704;2023-08-12T13:26:35;28.00;91.30
80426;DHT22;69766;51.476;5.704;2023-08-12T13:29:04;26.70;94.30
80426;DHT22;69766;51.476;5.704;2023-08-12T13:31:30;26.20;97.20
80426;DHT22;69766;51.476;5.704;2023-08-12T13:33:55;26.50;95.70
80426;DHT22;69766;51.476;5.704;2023-08-12T13:39:59;27.50;94.70
80426;DHT22;69766;51.476;5.704;2023-08-12T13:42:45;27.90;95.40
80426;DHT22;69766;51.476;5.704;2023-08-12T13:45:27;27.80;93.00
80426;DHT22;69766;51.476;5.704;2023-08-12T13:48:23;27.10;94.20
80426;DHT22;69766;51.476;5.704;2023-08-12T13:51:00;26.20;97.10
80426;DHT22;69766;51.476;5.704;2023-08-12T13:53:31;26.50;94.40
80426;DHT22;69766;51.476;5.704;2023-08-12T13:56:09;26.50;95.20
80426;DHT22;69766;51.476;5.704;2023-08-12T13:58:35;26.10;96.10
80426;DHT22;69766;51.476;5.704;2023-08-12T14:01:29;25.40;96.10
80426;DHT22;69766;51.476;5.704;2023-08-12T14:04:10;24.80;95.70
80426;DHT22;69766;51.476;5.704;2023-08-12T14:06:44;24.40;97.60
80426;DHT22;69766;51.476;5.704;2023-08-12T14:09:22;24.30;98.20
80426;DHT22;69766;51.476;5.704;2023-08-12T14:14:37;25.30;97.00
80426;DHT22;69766;51.476;5.704;2023-08-12T14:17:10;26.20;95.80
80426;DHT22;69766;51.476;5.704;2023-08-12T14:19:40;26.60;95.10
80426;DHT22;69766;51.476;5.704;2023-08-12T14:22:18;25.90;96.40
80426;DHT22;69766;51.476;5.704;2023-08-12T14:25:00;25.10;97.00
80426;DHT22;69766;51.476;5.704;2023-08-12T14:27:33;24.90;98.10
80426;DHT22;69766;51.476;5.704;2023-08-12T14:29:58;24.60;97.10
80426;DHT22;69766;51.476;5.704;2023-08-12T14:32:47;24.30;99.10
80426;DHT22;69766;51.476;5.704;2023-08-12T14:35:13;24.20;97.30
80426;DHT22;69766;51.476;5.704;2023-08-12T14:37:42;24.70;95.80
80426;DHT22;69766;51.476;5.704;2023-08-12T14:40:08;24.70;95.00
80426;DHT22;69766;51.476;5.704;2023-08-12T14:42:37;24.30;95.70
80426;DHT22;69766;51.476;5.704;2023-08-12T14:45:03;24.40;96.00
80426;DHT22;69766;51.476;5.704;2023-08-12T14:47:29;24.70;96.50
80426;DHT22;69766;51.476;5.704;2023-08-12T14:49:58;25.30;96.10
80426;DHT22;69766;51.476;5.704;2023-08-12T14:52:27;26.00;95.30
80426;DHT22;69766;51.476;5.704;2023-08-12T14:54:53;25.80;94.00
80426;DHT22;69766;51.476;5.704;2023-08-12T14:57:18;26.50;92.90
80426;DHT22;69766;51.476;5.704;2023-08-12T14:59:47;27.20;92.50
80426;DHT22;69766;51.476;5.704;2023-08-12T15:02:22;27.50;92.00
80426;DHT22;69766;51.476;5.704;2023-08-12T15:04:48;27.70;91.90
80426;DHT22;69766;51.476;5.704;2023-08-12T15:07:14;27.50;91.20
80426;DHT22;69766;51.476;5.704;2023-08-12T15:09:42;27.30;91.90
80426;DHT22;69766;51.476;5.704;2023-08-12T15:12:07;26.90;93.60
80426;DHT22;69766;51.476;5.704;2023-08-12T15:14:33;27.00;93.50
80426;DHT22;69766;51.476;5.704;2023-08-12T15:17:01;27.20;93.00
80426;DHT22;69766;51.476;5.704;2023-08-12T15:19:27;27.30;92.30
80426;DHT22;69766;51.476;5.704;2023-08-12T15:21:52;26.90;91.70
80426;DHT22;69766;51.476;5.704;2023-08-12T15:24:19;27.00;92.40
80426;DHT22;69766;51.476;5.704;2023-08-12T15:26:45;27.30;92.00
80426;DHT22;69766;51.476;5.704;2023-08-12T15:29:11;27.80;91.20
80426;DHT22;69766;51.476;5.704;2023-08-12T15:31:40;27.80;90.20
80426;DHT22;69766;51.476;5.704;2023-08-12T15:34:06;27.60;90.80
80426;DHT22;69766;51.476;5.704;2023-08-12T15:36:31;27.90;90.50
80426;DHT22;69766;51.476;5.704;2023-08-12T15:38:59;27.80;90.20
80426;DHT22;69766;51.476;5.704;2023-08-12T15:41:24;27.20;90.50
80426;DHT22;69766;51.476;5.704;2023-08-12T15:43:50;26.70;91.90
80426;DHT22;69766;51.476;5.704;2023-08-12T15:46:16;26.20;92.50
80426;DHT22;69766;51.476;5.704;2023-08-12T15:48:44;25.40;94.50
80426;DHT22;69766;51.476;5.704;2023-08-12T15:51:10;25.10;96.10
80426;DHT22;69766;51.476;5.704;2023-08-12T15:53:36;24.70;95.40
80426;DHT22;69766;51.476;5.704;2023-08-12T15:56:01;24.60;95.90
80426;DHT22;69766;51.476;5.704;2023-08-12T15:58:30;24.90;96.30
80426;DHT22;69766;51.476;5.704;2023-08-12T16:00:55;25.50;95.80